Time;durP1;ratioP1;P1;durP2;ratioP2;P2;SDS_P1;SDS_P2;PMS_P1;PMS_P2;Temp;Humidity;BMP_temperature;BMP_pressure;BME280_temperature;BME280_humidity;BME280_pressure;Samples;Min_cycle;Max_cycle;Signal;HPM_P1;HPM_P2
2023/09/01 04:03:19;;;;;;;1.30;1.20;;;12.00;97.30;;;;;;4984428;28;20493;-87
2023/09/01 04:06:10;;;;;;;1.10;1.00;;;12.00;97.30;;;;;;4978001;28;20429;-87
2023/09/01 04:09:20;;;;;;;2.70;2.50;;;12.00;97.30;;;;;;5001817;28;20421;-87
2023/09/01 04:11:49;;;;;;;1.73;1.63;;;12.00;97.30;;;;;;5002083;28;20637;-87
2023/09/01 04:14:29;;;;;;;3.27;1.20;;;12.00;97.30;;;;;;4986304;28;20430;-87
2023/09/01 04:17:50;;;;;;;0.90;0.80;;;12.00;97.30;;;;;;4981223;28;20502;-87
2023/09/01 04:20:29;;;;;;;2.37;1.90;;;12.00;97.30;;;;;;4957657;28;20438;-87
2023/09/01 04:23:28;;;;;;;1.00;0.90;;;12.00;97.30;;;;;;4941002;29;20646;-87
2023/09/01 04:26:00;;;;;;;2.40;1.50;;;12.00;97.30;;;;;;4939557;28;20693;-87
2023/09/01 04:28:49;;;;;;;1.33;1.23;;;12.00;97.30;;;;;;4950741;28;20430;-87
2023/09/01 04:31:28;;;;;;;4.40;1.53;;;12.00;97.30;;;;;;4967526;23;20500;-66
2023/09/01 04:33:55;;;;;;;1.40;1.30;;;12.00;97.30;;;;;;4974840;28;20429;-66
2023/09/01 04:36:21;;;;;;;1.53;1.30;;;12.00;97.30;;;;;;4973485;28;20425;-66
2023/09/01 04:38:47;;;;;;;2.00;1.67;;;12.00;97.30;;;;;;4975647;28;20417;-66
2023/09/01 04:41:12;;;;;;;1.77;1.67;;;12.00;97.30;;;;;;4971156;28;20800;-66
2023/09/01 04:43:38;;;;;;;1.10;1.00;;;12.00;97.30;;;;;;4973712;28;20453;-67
2023/09/01 04:46:04;;;;;;;1.37;1.00;;;12.00;97.30;;;;;;4988475;28;20197;-66
2023/09/01 04:48:30;;;;;;;2.20;1.30;;;12.00;97.30;;;;;;4979952;28;20943;-67
2023/09/01 04:50:56;;;;;;;1.77;1.20;;;12.00;97.30;;;;;;4986936;28;20419;-67
2023/09/01 04:53:22;;;;;;;1.43;1.33;;;12.00;97.30;;;;;;4970637;28;20949;-67
2023/09/01 04:55:49;;;;;;;2.03;1.67;;;12.00;97.30;;;;;;4978327;28;20183;-67
2023/09/01 04:58:15;;;;;;;2.40;2.03;;;12.00;97.30;;;;;;4972429;28;20559;-66
2023/09/01 05:00:41;;;;;;;1.10;1.00;;;12.00;97.30;;;;;;4972212;28;20428;-66
2023/09/01 05:03:07;;;;;;;6.33;1.97;;;12.00;97.30;;;;;;4971110;28;20456;-67
2023/09/01 05:05:32;;;;;;;0.90;0.90;;;12.00;97.30;;;;;;4972254;28;20430;-66
2023/09/01 05:07:58;;;;;;;1.30;1.20;;;12.00;97.30;;;;;;4972229;28;20177;-66
2023/09/01 05:10:23;;;;;;;3.07;1.83;;;12.00;97.30;;;;;;4970768;28;20392;-66
2023/09/01 05:12:49;;;;;;;1.57;1.47;;;12.00;97.30;;;;;;4972085;28;20210;-66
2023/09/01 05:15:15;;;;;;;1.67;1.57;;;12.00;97.30;;;;;;4972331;28;20178;-67
2023/09/01 05:17:40;;;;;;;1.77;1.67;;;12.00;97.30;;;;;;4970655;28;20197;-66
2023/09/01 05:20:09;;;;;;;2.27;2.07;;;12.00;97.30;;;;;;4971790;28;20194;-67
2023/09/01 05:22:35;;;;;;;1.20;1.10;;;12.00;97.30;;;;;;4971819;28;20581;-67
2023/09/01 05:25:01;;;;;;;2.50;2.00;;;12.00;97.30;;;;;;4969876;28;20428;-67
2023/09/01 05:27:26;;;;;;;1.73;1.50;;;12.10;97.30;;;;;;4974619;28;20206;-67
2023/09/01 05:29:52;;;;;;;2.27;2.07;;;12.10;97.30;;;;;;4973594;28;20171;-67
2023/09/01 05:32:19;;;;;;;1.30;1.20;;;12.10;97.30;;;;;;4971629;28;20292;-67
2023/09/01 05:34:45;;;;;;;2.77;1.70;;;12.20;97.30;;;;;;4971140;28;20183;-67
2023/09/01 05:37:14;;;;;;;4.80;2.10;;;12.20;97.30;;;;;;4971232;28;20989;-67
2023/09/01 05:39:40;;;;;;;6.70;1.53;;;12.30;97.30;;;;;;4969176;28;20182;-67
2023/09/01 05:42:09;;;;;;;2.70;2.40;;;12.30;97.30;;;;;;4970367;28;20445;-67
2023/09/01 05:44:36;;;;;;;3.70;2.30;;;12.30;97.30;;;;;;4968525;28;20425;-67
2023/09/01 05:47:06;;;;;;;1.40;1.30;;;12.40;97.30;;;;;;4969869;28;20461;-67
2023/09/01 05:49:33;;;;;;;3.60;2.50;;;12.40;97.30;;;;;;4967864;28;20442;-67
2023/09/01 05:51:59;;;;;;;2.40;2.20;;;12.50;97.30;;;;;;4974008;28;20545;-67
2023/09/01 05:54:25;;;;;;;3.00;1.83;;;12.50;97.30;;;;;;4966630;28;20500;-67
2023/09/01 05:56:51;;;;;;;2.73;2.20;;;12.50;97.30;;;;;;4968015;28;20418;-67
2023/09/01 05:59:16;;;;;;;1.27;1.17;;;12.60;97.30;;;;;;4968244;28;20440;-66
2023/09/01 06:01:42;;;;;;;1.30;1.20;;;12.60;97.30;;;;;;4969694;28;20256;-67
2023/09/01 06:04:08;;;;;;;4.20;1.97;;;12.70;97.30;;;;;;4971324;28;20182;-67
2023/09/01 06:06:35;;;;;;;1.37;1.27;;;12.70;97.30;;;;;;4971005;28;20628;-67
2023/09/01 06:09:07;;;;;;;3.10;2.23;;;12.80;97.30;;;;;;4969623;28;20710;-67
2023/09/01 06:11:34;;;;;;;3.30;3.10;;;12.80;97.30;;;;;;4969647;28;20453;-67
2023/09/01 06:14:01;;;;;;;2.13;1.53;;;12.90;97.30;;;;;;4971040;28;20939;-66
2023/09/01 06:16:27;;;;;;;3.70;2.77;;;12.90;97.30;;;;;;4970949;28;20936;-66
2023/09/01 06:18:53;;;;;;;1.50;1.40;;;13.00;97.30;;;;;;4969780;28;20452;-67
2023/09/01 06:21:19;;;;;;;5.93;1.50;;;13.00;97.30;;;;;;4970863;28;20457;-67
2023/09/01 06:23:45;;;;;;;2.03;1.50;;;13.00;97.30;;;;;;4969386;28;20521;-65
2023/09/01 06:26:14;;;;;;;1.40;1.30;;;13.10;97.30;;;;;;4969596;28;20702;-66
2023/09/01 06:28:40;;;;;;;26.27;3.33;;;13.10;97.30;;;;;;4969771;28;20721;-67
2023/09/01 06:31:09;;;;;;;7.33;2.10;;;13.20;97.30;;;;;;4969221;28;20930;-67
2023/09/01 06:33:35;;;;;;;2.40;2.20;;;13.20;97.30;;;;;;4970886;28;20466;-67
2023/09/01 06:36:00;;;;;;;2.37;2.20;;;13.20;97.30;;;;;;4968936;28;20969;-67
2023/09/01 06:38:26;;;;;;;3.30;1.80;;;13.30;97.30;;;;;;4969391;28;20432;-67
2023/09/01 06:40:51;;;;;;;1.50;1.50;;;13.30;97.30;;;;;;4970372;28;20186;-67
2023/09/01 06:43:17;;;;;;;3.33;2.23;;;13.30;97.30;;;;;;4968849;28;20295;-67
2023/09/01 06:45:42;;;;;;;1.57;1.53;;;13.40;97.30;;;;;;4970328;28;20210;-67
2023/09/01 06:48:08;;;;;;;5.17;2.70;;;13.40;97.30;;;;;;4969276;28;20178;-67
2023/09/01 06:50:36;;;;;;;1.87;1.70;;;13.40;97.30;;;;;;4970210;28;20186;-67
2023/09/01 06:53:02;;;;;;;2.20;2.03;;;13.40;97.30;;;;;;4970215;28;20638;-67
2023/09/01 06:55:28;;;;;;;2.13;1.90;;;13.50;97.30;;;;;;4970265;28;20430;-67
2023/09/01 06:57:53;;;;;;;1.27;1.17;;;13.60;97.30;;;;;;4969036;28;20187;-67
2023/09/01 07:00:19;;;;;;;2.53;2.33;;;13.60;97.30;;;;;;4967370;28;20209;-67
2023/09/01 07:02:44;;;;;;;1.07;0.97;;;13.70;97.30;;;;;;4965643;28;20293;-67
2023/09/01 07:05:10;;;;;;;2.30;2.10;;;13.70;97.30;;;;;;4968690;28;20701;-67
2023/09/01 07:07:36;;;;;;;2.73;1.63;;;13.80;97.30;;;;;;4966498;28;20696;-68
2023/09/01 07:10:03;;;;;;;1.53;1.43;;;13.80;97.30;;;;;;4970228;28;20182;-67
2023/09/01 07:12:29;;;;;;;3.40;1.83;;;13.90;97.30;;;;;;4968754;28;20446;-68
2023/09/01 07:14:54;;;;;;;2.27;2.07;;;14.00;97.30;;;;;;4968070;28;20521;-65
2023/09/01 07:17:24;;;;;;;2.70;2.13;;;14.10;97.30;;;;;;4970089;28;20670;-67
2023/09/01 07:19:50;;;;;;;1.63;1.40;;;14.10;97.30;;;;;;4970412;28;20237;-67
2023/09/01 07:22:15;;;;;;;3.00;1.70;;;14.20;97.30;;;;;;4970033;28;20425;-68
2023/09/01 07:24:41;;;;;;;6.77;2.43;;;14.30;97.30;;;;;;4969092;28;20193;-67
2023/09/01 07:27:06;;;;;;;1.77;1.73;;;14.30;97.30;;;;;;4969877;28;20237;-67
2023/09/01 07:29:32;;;;;;;1.40;1.40;;;14.40;97.30;;;;;;4968847;28;20190;-68
2023/09/01 07:32:01;;;;;;;3.90;2.60;;;14.50;97.30;;;;;;4968187;28;20238;-67
2023/09/01 07:34:27;;;;;;;2.40;1.67;;;14.60;97.30;;;;;;4968961;28;20433;-67
2023/09/01 07:36:53;;;;;;;2.97;1.33;;;14.60;97.30;;;;;;4968387;28;20430;-66
2023/09/01 07:39:18;;;;;;;1.67;1.40;;;14.70;97.30;;;;;;4968901;28;20205;-68
2023/09/01 07:41:44;;;;;;;1.67;1.57;;;14.80;97.30;;;;;;4968626;28;20412;-68
2023/09/01 07:44:09;;;;;;;3.63;1.67;;;14.80;97.30;;;;;;4969765;28;20186;-68
2023/09/01 07:46:35;;;;;;;2.17;1.47;;;14.80;97.30;;;;;;4968502;28;20698;-69
2023/09/01 07:49:02;;;;;;;5.73;2.13;;;14.90;97.30;;;;;;4968493;28;20193;-68
2023/09/01 07:51:28;;;;;;;1.27;1.23;;;15.00;97.30;;;;;;4969078;28;20268;-69
2023/09/01 07:53:54;;;;;;;1.60;1.50;;;15.10;97.30;;;;;;4969662;28;20418;-67
2023/09/01 07:56:20;;;;;;;2.13;1.97;;;15.20;97.30;;;;;;4969853;28;20194;-68
2023/09/01 07:58:46;;;;;;;1.90;1.70;;;15.20;97.30;;;;;;4968042;28;20500;-69
2023/09/01 08:01:11;;;;;;;4.20;3.93;;;15.30;97.30;;;;;;4968019;28;20926;-67
2023/09/01 08:03:37;;;;;;;1.47;1.37;;;15.30;97.30;;;;;;4969899;28;20266;-65
2023/09/01 08:06:04;;;;;;;3.50;2.30;;;15.40;97.30;;;;;;4969354;28;20674;-67
2023/09/01 08:08:29;;;;;;;7.93;2.23;;;15.40;97.30;;;;;;4968278;28;20671;-69
2023/09/01 08:10:55;;;;;;;1.67;1.63;;;15.50;97.30;;;;;;4968006;28;20469;-68
2023/09/01 08:13:22;;;;;;;2.80;2.13;;;15.50;97.30;;;;;;4969459;28;20206;-69
2023/09/01 08:15:48;;;;;;;1.90;1.87;;;15.60;97.30;;;;;;4975525;28;20659;-68
2023/09/01 08:18:13;;;;;;;3.50;1.83;;;15.60;97.30;;;;;;4968458;28;20445;-67
2023/09/01 08:20:40;;;;;;;1.63;1.53;;;15.70;97.30;;;;;;4966016;28;20422;-69
2023/09/01 08:23:06;;;;;;;1.73;1.33;;;15.90;97.30;;;;;;4967689;28;20206;-69
2023/09/01 08:25:32;;;;;;;1.40;1.30;;;16.00;97.30;;;;;;4967978;28;20434;-69
2023/09/01 08:27:58;;;;;;;2.70;2.00;;;16.00;97.30;;;;;;4969350;28;20687;-68
2023/09/01 08:30:24;;;;;;;1.47;1.33;;;16.10;97.30;;;;;;4971766;28;20464;-67
2023/09/01 08:32:49;;;;;;;2.20;1.50;;;16.20;97.30;;;;;;4971011;28;20648;-66
2023/09/01 08:35:15;;;;;;;3.37;1.80;;;16.20;97.30;;;;;;4971567;28;20179;-68
2023/09/01 08:37:41;;;;;;;1.37;1.33;;;16.30;97.30;;;;;;4971595;28;20257;-69
2023/09/01 08:40:11;;;;;;;2.40;1.53;;;16.40;97.30;;;;;;4971445;28;20227;-70
2023/09/01 08:42:46;;;;;;;2.60;2.03;;;16.50;97.30;;;;;;4972650;28;20499;-69
2023/09/01 08:45:14;;;;;;;4.10;2.53;;;16.50;97.30;;;;;;4972601;28;20422;-65
2023/09/01 08:47:49;;;;;;;4.00;1.47;;;16.60;97.30;;;;;;4972433;28;20973;-70
2023/09/01 08:50:17;;;;;;;1.57;1.47;;;16.70;97.30;;;;;;4971404;28;20436;-70
2023/09/01 08:52:44;;;;;;;1.30;1.20;;;16.80;97.30;;;;;;4971144;28;21072;-69
2023/09/01 08:55:13;;;;;;;1.60;1.60;;;16.90;97.30;;;;;;4971455;28;20433;-69
2023/09/01 08:57:39;;;;;;;4.03;2.17;;;16.90;97.30;;;;;;4971171;28;20433;-70
2023/09/01 09:00:07;;;;;;;3.70;2.07;;;17.00;97.30;;;;;;4970569;28;20512;-70
2023/09/01 09:02:34;;;;;;;3.17;1.87;;;17.00;97.30;;;;;;4971087;28;20458;-69
2023/09/01 09:05:02;;;;;;;1.20;1.10;;;17.00;97.30;;;;;;4972426;28;20426;-70
2023/09/01 09:07:29;;;;;;;1.23;1.20;;;17.10;97.30;;;;;;4967655;28;20553;-69
2023/09/01 09:09:59;;;;;;;3.23;1.47;;;17.20;97.30;;;;;;4969817;28;20887;-69
2023/09/01 09:12:39;;;;;;;2.90;2.73;;;17.30;97.30;;;;;;4972292;28;20456;-69
2023/09/01 09:15:05;;;;;;;1.40;1.30;;;17.40;97.30;;;;;;4970723;28;20437;-65
2023/09/01 09:17:45;;;;;;;4.23;2.43;;;17.40;97.30;;;;;;4967186;28;21152;-69
2023/09/01 09:20:17;;;;;;;2.67;1.87;;;17.40;97.30;;;;;;4971103;28;20808;-66
2023/09/01 09:22:57;;;;;;;1.00;0.90;;;17.50;97.30;;;;;;4972719;28;20597;-68
2023/09/01 09:25:25;;;;;;;1.20;1.10;;;17.60;97.30;;;;;;4972045;28;20480;-70
2023/09/01 09:27:51;;;;;;;1.27;1.17;;;17.70;97.30;;;;;;4971976;28;20466;-70
2023/09/01 09:30:17;;;;;;;2.63;1.40;;;17.70;97.30;;;;;;4972157;28;20418;-71
2023/09/01 09:32:43;;;;;;;1.00;0.83;;;17.80;97.30;;;;;;4970321;28;21012;-70
2023/09/01 09:35:13;;;;;;;1.50;1.40;;;17.90;97.30;;;;;;4969567;28;20183;-69
2023/09/01 09:37:42;;;;;;;22.27;2.07;;;18.00;97.30;;;;;;4969400;28;20178;-70
2023/09/01 09:40:17;;;;;;;2.03;1.67;;;18.10;97.30;;;;;;4969735;28;20430;-68
2023/09/01 09:42:46;;;;;;;3.87;1.30;;;18.10;97.30;;;;;;4969392;28;20452;-69
2023/09/01 09:45:23;;;;;;;8.53;1.27;;;18.20;97.30;;;;;;4969639;28;20433;-70
2023/09/01 09:47:50;;;;;;;1.40;1.30;;;18.20;97.30;;;;;;4970187;28;20476;-69
2023/09/01 09:50:19;;;;;;;1.37;1.37;;;18.20;97.30;;;;;;4969993;28;20422;-70
2023/09/01 09:52:49;;;;;;;2.80;2.60;;;18.40;97.30;;;;;;4971737;28;20446;-70
2023/09/01 09:55:27;;;;;;;1.80;1.23;;;18.50;97.30;;;;;;4970188;28;20919;-72
2023/09/01 09:58:05;;;;;;;1.40;1.30;;;18.70;97.30;;;;;;4967902;28;20461;-71
2023/09/01 10:00:34;;;;;;;3.30;1.43;;;18.80;97.30;;;;;;4971441;28;20505;-71
2023/09/01 10:03:01;;;;;;;1.83;1.83;;;19.00;97.30;;;;;;4971112;28;20470;-72
2023/09/01 10:05:31;;;;;;;1.63;1.53;;;19.20;97.30;;;;;;4971224;28;20932;-72
2023/09/01 10:08:00;;;;;;;2.30;1.27;;;19.30;97.30;;;;;;4969767;28;20473;-73
2023/09/01 10:10:26;;;;;;;1.40;1.30;;;19.40;97.30;;;;;;4971842;28;20418;-70
2023/09/01 10:12:52;;;;;;;1.83;1.60;;;19.50;97.30;;;;;;4971213;28;20969;-66
2023/09/01 10:15:18;;;;;;;1.57;1.47;;;19.50;97.30;;;;;;5001921;23;20496;-85
2023/09/01 10:17:46;;;;;;;1.57;1.40;;;19.60;97.30;;;;;;4991456;28;20433;-86
2023/09/01 10:20:12;;;;;;;2.63;2.43;;;19.60;97.30;;;;;;4991191;28;20584;-86
2023/09/01 10:22:40;;;;;;;1.07;1.00;;;19.50;97.30;;;;;;4991159;28;20516;-85
2023/09/01 10:25:11;;;;;;;1.20;1.10;;;19.40;97.30;;;;;;4975949;28;20285;-86
2023/09/01 10:27:37;;;;;;;1.30;1.30;;;19.40;97.30;;;;;;4988023;23;20493;-72
2023/09/01 10:30:24;;;;;;;3.40;2.00;;;19.40;97.30;;;;;;4989961;28;20453;-72
2023/09/01 10:32:50;;;;;;;2.20;1.47;;;19.40;97.30;;;;;;4974772;28;20464;-72
2023/09/01 10:35:37;;;;;;;1.77;1.67;;;19.40;97.30;;;;;;4970738;28;20781;-72
2023/09/01 10:38:17;;;;;;;3.30;1.37;;;19.40;97.30;;;;;;4969323;28;20512;-71
2023/09/01 10:40:53;;;;;;;2.57;1.50;;;19.50;97.30;;;;;;4969575;28;20469;-71
2023/09/01 10:43:51;;;;;;;1.67;1.50;;;19.60;97.30;;;;;;4970600;28;20477;-71
2023/09/01 10:46:17;;;;;;;1.33;1.20;;;19.70;97.30;;;;;;4947424;28;20469;-73
2023/09/01 10:48:58;;;;;;;1.13;1.03;;;19.80;97.30;;;;;;4969143;28;20430;-72
2023/09/01 10:51:37;;;;;;;1.30;1.20;;;20.00;97.30;;;;;;4964287;28;20178;-72
2023/09/01 10:54:22;;;;;;;1.43;1.13;;;20.10;97.30;;;;;;4970297;28;20921;-71
2023/09/01 10:57:04;;;;;;;1.20;1.10;;;20.10;96.10;;;;;;4970145;28;20436;-72
2023/09/01 10:59:37;;;;;;;2.73;1.77;;;20.30;97.30;;;;;;4979341;28;20460;-71
2023/09/01 11:02:17;;;;;;;1.60;1.40;;;20.40;97.20;;;;;;4955572;28;20453;-70
2023/09/01 11:04:43;;;;;;;1.53;1.10;;;20.60;97.30;;;;;;4967736;28;20708;-70
2023/09/01 11:07:08;;;;;;;2.83;1.87;;;20.70;96.30;;;;;;4968447;28;20465;-70
2023/09/01 11:09:34;;;;;;;1.43;1.37;;;20.80;95.20;;;;;;4968934;28;20198;-72
2023/09/01 11:12:03;;;;;;;1.60;1.50;;;20.80;95.00;;;;;;4969981;28;20226;-71
2023/09/01 11:14:30;;;;;;;2.60;2.40;;;20.70;94.00;;;;;;4969939;28;20521;-73
2023/09/01 11:16:55;;;;;;;1.50;1.27;;;20.60;94.70;;;;;;4968377;28;20421;-72
2023/09/01 11:19:21;;;;;;;2.57;1.87;;;20.60;95.40;;;;;;4968849;28;20484;-74
2023/09/01 11:21:47;;;;;;;1.87;1.17;;;20.70;96.90;;;;;;4968610;28;20233;-71
2023/09/01 11:24:14;;;;;;;2.87;1.70;;;20.90;96.80;;;;;;4968192;28;20205;-73
2023/09/01 11:26:40;;;;;;;5.67;1.70;;;21.00;95.50;;;;;;4966833;28;20501;-71
2023/09/01 11:29:12;;;;;;;1.17;1.10;;;21.00;95.40;;;;;;4967021;28;20438;-70
2023/09/01 11:31:39;;;;;;;1.10;1.00;;;21.10;94.70;;;;;;4967288;28;21067;-72
2023/09/01 11:34:05;;;;;;;1.73;1.27;;;21.10;93.50;;;;;;4965669;28;20422;-70
2023/09/01 11:36:31;;;;;;;1.87;1.83;;;21.10;94.60;;;;;;4966329;28;20472;-73
2023/09/01 11:38:57;;;;;;;1.67;1.57;;;21.10;95.00;;;;;;4968729;28;20430;-72
2023/09/01 11:41:23;;;;;;;1.07;0.97;;;21.10;93.90;;;;;;4968068;28;20434;-71
2023/09/01 11:43:50;;;;;;;1.90;1.83;;;21.10;94.00;;;;;;4968275;28;20630;-74
2023/09/01 11:46:16;;;;;;;1.07;0.97;;;21.00;94.10;;;;;;4968090;28;20472;-70
2023/09/01 11:48:46;;;;;;;1.10;1.00;;;21.00;93.10;;;;;;4968399;28;20449;-69
2023/09/01 11:51:12;;;;;;;1.10;1.00;;;20.90;94.50;;;;;;4971020;28;20417;-74
2023/09/01 11:53:38;;;;;;;2.23;1.40;;;20.90;94.60;;;;;;4970052;28;20417;-73
2023/09/01 11:56:22;;;;;;;1.97;1.70;;;20.90;95.50;;;;;;4969187;28;20788;-74
2023/09/01 11:58:49;;;;;;;1.03;0.97;;;20.90;95.80;;;;;;4969523;28;20424;-71
2023/09/01 12:01:19;;;;;;;1.47;1.07;;;21.00;95.40;;;;;;4969740;28;20874;-72
2023/09/01 12:03:52;;;;;;;1.17;1.00;;;21.10;94.80;;;;;;4973469;28;20429;-74
2023/09/01 12:06:22;;;;;;;1.63;1.00;;;21.20;96.10;;;;;;4973040;28;20465;-70
2023/09/01 12:08:50;;;;;;;1.10;0.93;;;21.30;94.60;;;;;;4973400;28;20419;-70
2023/09/01 12:11:16;;;;;;;2.50;1.30;;;21.40;94.30;;;;;;4971726;28;20437;-72
2023/09/01 12:13:44;;;;;;;1.87;1.13;;;21.30;94.30;;;;;;4970704;28;21005;-71
2023/09/01 12:16:23;;;;;;;1.53;1.10;;;21.30;94.50;;;;;;4969875;28;20465;-73
2023/09/01 12:18:51;;;;;;;1.23;1.13;;;21.30;93.50;;;;;;4972141;28;20961;-71
2023/09/01 12:21:16;;;;;;;1.10;1.10;;;21.20;93.60;;;;;;4970123;28;20799;-71
2023/09/01 12:23:44;;;;;;;1.20;1.10;;;21.20;93.90;;;;;;4971899;28;20972;-72
2023/09/01 12:26:11;;;;;;;1.97;1.27;;;21.10;94.10;;;;;;4971184;28;20194;-71
2023/09/01 12:28:38;;;;;;;1.03;0.93;;;21.10;94.70;;;;;;4971246;28;20523;-72
2023/09/01 12:31:05;;;;;;;1.40;0.90;;;21.10;95.20;;;;;;4971510;28;20430;-72
2023/09/01 12:33:32;;;;;;;2.20;1.50;;;21.20;95.00;;;;;;4964801;28;20418;-72
2023/09/01 12:35:58;;;;;;;1.03;1.00;;;21.20;95.20;;;;;;4972809;28;20418;-73
2023/09/01 12:38:25;;;;;;;1.50;1.40;;;21.10;94.70;;;;;;4971348;28;20428;-72
2023/09/01 12:40:52;;;;;;;3.33;1.30;;;21.10;95.40;;;;;;4975429;28;20441;-74
2023/09/01 12:43:18;;;;;;;3.43;1.27;;;21.20;96.10;;;;;;4973691;28;20434;-68
2023/09/01 12:45:43;;;;;;;1.00;0.90;;;21.20;95.90;;;;;;4980109;28;20421;-74
2023/09/01 12:48:09;;;;;;;1.27;1.20;;;21.30;95.10;;;;;;4981399;28;20472;-72
2023/09/01 12:50:35;;;;;;;1.60;1.30;;;21.30;94.90;;;;;;4976461;28;20663;-69
2023/09/01 12:53:01;;;;;;;1.70;1.30;;;21.30;94.70;;;;;;4973539;28;20448;-73
2023/09/01 12:55:27;;;;;;;1.20;1.10;;;21.30;95.80;;;;;;4976836;28;20183;-68
2023/09/01 12:57:54;;;;;;;0.93;0.83;;;21.20;95.80;;;;;;4980924;28;20424;-71
2023/09/01 13:00:20;;;;;;;0.90;0.90;;;21.20;95.10;;;;;;4974017;28;20206;-72
2023/09/01 13:02:49;;;;;;;1.77;1.20;;;21.10;94.60;;;;;;4971233;28;20441;-72
2023/09/01 13:05:18;;;;;;;6.60;2.10;;;21.10;96.00;;;;;;4970582;28;20481;-70
2023/09/01 13:07:47;;;;;;;1.20;1.10;;;21.10;96.50;;;;;;4972145;28;20461;-71
2023/09/01 13:10:13;;;;;;;3.13;1.23;;;21.10;95.90;;;;;;4970383;28;20942;-72
2023/09/01 13:12:39;;;;;;;1.10;1.00;;;21.10;95.50;;;;;;4970431;28;20825;-72
2023/09/01 13:15:05;;;;;;;1.67;1.33;;;21.10;96.20;;;;;;4971736;28;20922;-72
2023/09/01 13:17:32;;;;;;;0.90;0.90;;;21.20;97.20;;;;;;4971801;28;20273;-72
2023/09/01 13:19:59;;;;;;;1.10;1.00;;;21.20;96.20;;;;;;4972283;28;20520;-72
2023/09/01 13:22:26;;;;;;;1.00;0.90;;;21.10;96.20;;;;;;4972513;28;20449;-71
2023/09/01 13:24:52;;;;;;;1.67;0.90;;;21.10;95.50;;;;;;4970390;28;21219;-71
2023/09/01 13:27:18;;;;;;;0.80;0.80;;;21.10;96.00;;;;;;4970371;28;20790;-71
2023/09/01 13:29:43;;;;;;;1.00;0.90;;;21.10;95.40;;;;;;4972488;28;20516;-72
2023/09/01 13:32:09;;;;;;;1.03;0.93;;;21.00;96.00;;;;;;4972915;28;20720;-71
2023/09/01 13:34:34;;;;;;;0.90;0.80;;;21.00;95.70;;;;;;4970818;28;20666;-72
2023/09/01 13:37:00;;;;;;;0.90;0.80;;;21.00;96.30;;;;;;4968357;28;20182;-72
2023/09/01 13:39:25;;;;;;;0.90;0.80;;;21.00;97.00;;;;;;4972087;28;20183;-72
2023/09/01 13:41:51;;;;;;;1.23;1.13;;;20.90;96.20;;;;;;4982848;28;20468;-72
2023/09/01 13:44:18;;;;;;;1.10;1.00;;;20.90;96.80;;;;;;4981345;28;20277;-72
2023/09/01 13:46:44;;;;;;;2.40;1.10;;;20.90;97.10;;;;;;4978368;28;20249;-72
2023/09/01 13:49:10;;;;;;;1.03;0.93;;;20.90;97.20;;;;;;4985826;28;20840;-72
2023/09/01 13:51:36;;;;;;;0.80;0.80;;;21.00;96.40;;;;;;4986260;28;20190;-70
2023/09/01 13:54:02;;;;;;;1.57;1.47;;;21.00;96.20;;;;;;4989449;28;20413;-72
2023/09/01 13:56:28;;;;;;;1.27;1.17;;;21.00;96.50;;;;;;4980904;28;20214;-71
2023/09/01 13:58:54;;;;;;;1.00;1.00;;;21.10;96.30;;;;;;4983708;28;20489;-72
2023/09/01 14:01:19;;;;;;;0.97;0.87;;;21.10;96.50;;;;;;4969409;28;20254;-73
2023/09/01 14:03:45;;;;;;;1.20;1.10;;;21.10;96.30;;;;;;4983714;28;20189;-72
2023/09/01 14:06:11;;;;;;;1.10;1.00;;;21.20;96.60;;;;;;4982481;28;20262;-71
2023/09/01 14:08:37;;;;;;;0.87;0.80;;;21.20;96.10;;;;;;4986846;28;20513;-70
2023/09/01 14:11:02;;;;;;;1.00;0.90;;;21.10;96.40;;;;;;4976225;28;20527;-72
2023/09/01 14:13:28;;;;;;;0.70;0.70;;;21.10;96.70;;;;;;4982111;28;20512;-73
2023/09/01 14:15:56;;;;;;;0.90;0.80;;;21.10;96.80;;;;;;4982970;28;20483;-72
2023/09/01 14:18:22;;;;;;;5.97;1.00;;;21.10;96.70;;;;;;4985725;28;20248;-71
2023/09/01 14:20:52;;;;;;;1.00;0.90;;;21.10;96.50;;;;;;4969451;28;20429;-72
2023/09/01 14:23:22;;;;;;;1.37;1.27;;;21.00;96.90;;;;;;4978659;28;20452;-72
2023/09/01 14:25:48;;;;;;;0.90;0.80;;;21.00;97.30;;;;;;4969836;28;20453;-70
2023/09/01 14:28:14;;;;;;;1.00;0.90;;;21.00;97.30;;;;;;4986393;28;20473;-71
2023/09/01 14:30:40;;;;;;;1.00;0.90;;;21.00;97.10;;;;;;4976600;28;20429;-75
2023/09/01 14:33:06;;;;;;;0.90;0.80;;;21.00;97.00;;;;;;4970230;28;20485;-74
2023/09/01 14:35:31;;;;;;;1.00;0.90;;;20.90;97.00;;;;;;4971038;28;20410;-72
2023/09/01 14:37:57;;;;;;;1.10;1.00;;;20.90;97.30;;;;;;4971532;28;20244;-70
2023/09/01 14:40:23;;;;;;;0.90;0.80;;;20.90;97.30;;;;;;4967737;28;20193;-72
2023/09/01 14:42:49;;;;;;;1.13;1.00;;;20.80;97.10;;;;;;4962661;28;20206;-75
2023/09/01 14:45:15;;;;;;;1.00;0.90;;;20.80;97.30;;;;;;4969641;28;20190;-73
2023/09/01 14:47:40;;;;;;;0.90;0.80;;;20.80;97.30;;;;;;4960799;28;20808;-75
2023/09/01 14:50:06;;;;;;;1.53;1.53;;;20.70;97.30;;;;;;4965515;28;20237;-72
2023/09/01 14:52:32;;;;;;;1.17;1.07;;;20.70;97.30;;;;;;4974215;28;20243;-74
2023/09/01 14:54:58;;;;;;;1.20;1.20;;;20.60;97.30;;;;;;4968353;28;20926;-75
2023/09/01 14:57:23;;;;;;;0.90;0.80;;;20.50;97.30;;;;;;4960658;28;20666;-75
2023/09/01 14:59:50;;;;;;;1.03;0.97;;;20.50;97.30;;;;;;4968767;28;20182;-75
2023/09/01 15:02:15;;;;;;;1.90;1.30;;;20.50;97.30;;;;;;4969593;28;20733;-75
2023/09/01 15:04:41;;;;;;;1.10;1.00;;;20.40;97.30;;;;;;4966646;28;20709;-75
2023/09/01 15:07:07;;;;;;;1.30;1.10;;;20.40;97.30;;;;;;4969092;28;20292;-74
2023/09/01 15:09:32;;;;;;;1.03;1.00;;;20.30;97.30;;;;;;4969211;28;20186;-74
2023/09/01 15:11:58;;;;;;;1.00;0.90;;;20.30;97.30;;;;;;4967945;28;20715;-74
2023/09/01 15:14:23;;;;;;;1.00;0.90;;;20.30;97.30;;;;;;4967833;28;20209;-74
2023/09/01 15:16:49;;;;;;;1.67;1.27;;;20.20;97.30;;;;;;4968105;28;20182;-74
2023/09/01 15:19:15;;;;;;;3.43;1.10;;;20.20;97.30;;;;;;4969968;28;20440;-75
2023/09/01 15:21:40;;;;;;;1.13;1.03;;;20.20;97.30;;;;;;4968640;28;20210;-75
2023/09/01 15:24:06;;;;;;;1.00;0.90;;;20.20;97.30;;;;;;4968531;28;20186;-75
2023/09/01 15:26:32;;;;;;;1.00;0.90;;;20.20;97.30;;;;;;4967992;28;20206;-74
2023/09/01 15:28:58;;;;;;;1.77;1.67;;;20.20;97.30;;;;;;4967369;28;20696;-74
2023/09/01 15:31:23;;;;;;;1.00;0.90;;;20.20;97.30;;;;;;4966892;28;20175;-74
2023/09/01 15:33:49;;;;;;;0.90;0.80;;;20.10;97.30;;;;;;4968317;28;20513;-74
2023/09/01 15:36:15;;;;;;;2.30;1.10;;;20.10;97.30;;;;;;4966537;28;20183;-74
2023/09/01 15:38:40;;;;;;;1.13;1.07;;;20.10;97.30;;;;;;4974297;28;20264;-74
2023/09/01 15:41:06;;;;;;;0.90;0.80;;;20.10;97.30;;;;;;4978711;28;20178;-74
2023/09/01 15:43:32;;;;;;;0.90;0.80;;;20.10;97.30;;;;;;4966542;28;20245;-74
2023/09/01 15:45:58;;;;;;;0.97;0.83;;;20.10;97.30;;;;;;4969791;28;20174;-74
2023/09/01 15:48:24;;;;;;;1.07;0.97;;;20.10;97.30;;;;;;4970224;28;20206;-73
2023/09/01 15:50:54;;;;;;;1.00;0.90;;;20.10;97.30;;;;;;4967845;28;20182;-75
2023/09/01 15:53:20;;;;;;;0.90;0.80;;;20.00;97.30;;;;;;4971841;28;20237;-75
2023/09/01 15:55:46;;;;;;;1.03;0.93;;;20.00;97.30;;;;;;4965480;28;20864;-74
2023/09/01 15:58:11;;;;;;;0.97;0.93;;;19.90;97.30;;;;;;4965986;28;20261;-75
2023/09/01 16:00:38;;;;;;;1.00;0.90;;;19.90;97.30;;;;;;4965230;28;20213;-75
2023/09/01 16:03:04;;;;;;;1.03;0.93;;;19.90;97.30;;;;;;4965390;28;20209;-74
2023/09/01 16:05:33;;;;;;;0.90;0.80;;;19.90;97.30;;;;;;4965999;28;20429;-73
2023/09/01 16:07:59;;;;;;;1.83;0.90;;;19.80;97.30;;;;;;4963118;28;20536;-74
2023/09/01 16:10:26;;;;;;;1.90;1.77;;;19.80;97.30;;;;;;4964162;28;20969;-74
2023/09/01 16:12:52;;;;;;;1.63;1.30;;;19.70;97.30;;;;;;4966974;28;20437;-73
2023/09/01 16:17:46;;;;;;;0.80;0.70;;;19.60;97.30;;;;;;4984660;28;20867;-74
2023/09/01 16:20:12;;;;;;;1.20;1.00;;;19.60;97.30;;;;;;4986258;28;20413;-72
2023/09/01 16:22:38;;;;;;;0.77;0.73;;;19.60;97.30;;;;;;4973570;28;20449;-72
2023/09/01 16:25:04;;;;;;;1.30;1.20;;;19.50;97.30;;;;;;4968820;28;20183;-74
2023/09/01 16:27:33;;;;;;;0.80;0.80;;;19.50;97.30;;;;;;4968868;28;20219;-74
2023/09/01 16:29:59;;;;;;;1.53;1.47;;;19.40;97.30;;;;;;4969201;28;20421;-73
2023/09/01 16:32:25;;;;;;;0.90;0.80;;;19.40;97.30;;;;;;4967691;28;20458;-72
2023/09/01 16:34:50;;;;;;;1.20;1.10;;;19.40;97.30;;;;;;4967635;28;20433;-73
2023/09/01 16:37:16;;;;;;;2.20;1.17;;;19.30;97.30;;;;;;4968224;28;20245;-73
2023/09/01 16:39:41;;;;;;;3.73;1.53;;;19.30;97.30;;;;;;4967800;28;20659;-73
2023/09/01 16:42:07;;;;;;;1.10;1.00;;;19.30;97.30;;;;;;4968076;28;20203;-73
2023/09/01 16:44:34;;;;;;;1.23;1.13;;;19.20;97.30;;;;;;4967600;28;20214;-73
2023/09/01 16:46:59;;;;;;;1.10;1.00;;;19.20;97.30;;;;;;4969158;28;20202;-73
2023/09/01 16:49:25;;;;;;;1.77;1.40;;;19.20;97.30;;;;;;4969587;28;20879;-73
2023/09/01 16:51:51;;;;;;;1.20;1.10;;;19.20;97.30;;;;;;4971302;28;20493;-72
2023/09/01 16:54:16;;;;;;;1.03;0.93;;;19.10;97.30;;;;;;4972681;28;20217;-73
2023/09/01 16:56:42;;;;;;;1.83;1.10;;;19.10;97.30;;;;;;4970878;28;20194;-73